Friday, January 18, 2019, 3:07 AM EST
Back to Local

KEEN, Keene, Dillant-hopkins Airport

Location: Keene, NH, United States Lat: 42.9
Local Time: 3:07 AM EST ( 8:07 GMT) Lon: -72.267
Time Zone: US/Eastern Elev: 488 ft

Show me the last for .
Show Decoded

2019-01-18 01:56 METAR KEEN 180656Z AUTO 00000KT 10SM BKN060 BKN075 OVC085 M07/M12 A3022 RMK AO2
                 SLP255 T10671117 FZRANO $ =
2019-01-18 00:56 METAR KEEN 180556Z AUTO 00000KT 10SM BKN075 OVC100 M07/M12 A3022 RMK AO2 SLP255
                 T10721122 11067 21078 58016 FZRANO $ =
2019-01-17 23:56 METAR KEEN 180456Z AUTO 00000KT 10SM BKN080 BKN090 OVC110 M07/M12 A3024 RMK AO2
                 SLP263 T10721122 410391144 FZRANO $ =
2019-01-17 22:56 METAR KEEN 180356Z AUTO 00000KT 10SM BKN110 M07/M13 A3028 RMK AO2 SLP274
                 T10721128 FZRANO $ =
2019-01-17 21:56 METAR KEEN 180256Z AUTO 00000KT 10SM SCT120 M07/M13 A3027 RMK AO2 SLP274
                 T10721128 58008 FZRANO $ =
2019-01-17 20:56 METAR KEEN 180156Z AUTO 00000KT 10SM CLR M07/M14 A3028 RMK AO2 SLP276 T10721139
                 FZRANO $ =
2019-01-17 19:56 METAR KEEN 180056Z AUTO 21003KT 10SM CLR M07/M14 A3029 RMK AO2 SLP279 T10721139
                 FZRANO $ =
2019-01-17 18:56 METAR KEEN 172356Z AUTO 00000KT 10SM CLR M07/M14 A3029 RMK AO2 SLP280 60000
                 T10671139 11039 21067 52002 FZRANO $ =
2019-01-17 17:56 METAR KEEN 172256Z AUTO 00000KT 10SM BKN120 M07/M15 A3029 RMK AO2 SLP279
                 T10671150 FZRANO $ =
2019-01-17 16:56 METAR KEEN 172156Z AUTO 00000KT 10SM CLR M06/M18 A3029 RMK AO2 SNB00E18 SLP279
                 P0000 T10561178 FZRANO $ =
2019-01-17 15:56 METAR KEEN 172056Z AUTO 00000KT 10SM CLR M04/M20 A3029 RMK AO2 SLP278 T10441200
                 58015 FZRANO $ =
2019-01-17 14:56 METAR KEEN 171956Z AUTO 05003KT 10SM CLR M04/M21 A3030 RMK AO2 SLP283 T10441206
                 FZRANO $ =
2019-01-17 13:56 METAR KEEN 171856Z AUTO 04003KT 10SM CLR M05/M20 A3032 RMK AO2 SLP289 T10501200
                 FZRANO $ =
2019-01-17 12:56 METAR KEEN 171756Z AUTO 00000KT 10SM CLR M06/M21 A3033 RMK AO2 SNB00E26 SLP293
                 P0000 60000 T10611206 11061 21144 58028 FZRANO $ =
2019-01-17 11:56 METAR KEEN 171656Z AUTO 35005KT 10SM CLR M07/M20 A3037 RMK AO2 SNB02E18 SLP304
                 P0000 T10721200 FZRANO $ =
2019-01-17 10:56 METAR KEEN 171556Z AUTO 36007KT 10SM CLR M09/M19 A3040 RMK AO2 SLP316 T10891194
                 FZRANO $ =
2019-01-17 09:56 METAR KEEN 171456Z AUTO 00000KT 10SM CLR M11/M18 A3042 RMK AO2 SLP321 T11061183
                 51020 FZRANO $ =
2019-01-17 08:56 METAR KEEN 171356Z AUTO 01003KT 10SM CLR M12/M17 A3040 RMK AO2 SLP317 T11171172
                 FZRANO $ =
2019-01-17 07:56 METAR KEEN 171256Z AUTO 00000KT 10SM CLR M14/M17 A3038 RMK AO2 SLP309 T11441172
                 FZRANO $ =
2019-01-17 06:56 METAR KEEN 171156Z AUTO 00000KT 10SM CLR M14/M17 A3036 RMK AO2 SLP300 T11391172
                 11078 21139 53019 FZRANO $ =
2019-01-17 05:56 METAR KEEN 171056Z AUTO 00000KT 10SM CLR M13/M17 A3033 RMK AO2 SLP294 T11281172
                 FZRANO $ =
2019-01-17 04:56 METAR KEEN 170956Z AUTO 33004KT 10SM CLR M11/M18 A3032 RMK AO2 SLP289 T11111178
                 FZRANO $ =
2019-01-17 03:56 METAR KEEN 170856Z AUTO 34007KT 10SM CLR M11/M17 A3030 RMK AO2 SLP282 T11061172
                 51029 FZRANO $ =

Support USWX by starting your Amazon purchase here.